sensor_id;sensor_type;location;lat;lon;timestamp;P1;durP1;ratioP1;P2;durP2;ratioP2
36573;SDS011;22578;42.668;23.232;2023-03-13T00:03:20;1.30;;;1.30;;
36573;SDS011;22578;42.668;23.232;2023-03-13T00:06:41;1.40;;;1.40;;
36573;SDS011;22578;42.668;23.232;2023-03-13T00:10:01;1.20;;;1.20;;
36573;SDS011;22578;42.668;23.232;2023-03-13T00:13:22;1.27;;;1.27;;
36573;SDS011;22578;42.668;23.232;2023-03-13T00:16:42;1.30;;;1.30;;
36573;SDS011;22578;42.668;23.232;2023-03-13T00:20:03;1.40;;;1.40;;
36573;SDS011;22578;42.668;23.232;2023-03-13T00:23:24;1.40;;;1.40;;
36573;SDS011;22578;42.668;23.232;2023-03-13T00:26:44;1.30;;;1.30;;
36573;SDS011;22578;42.668;23.232;2023-03-13T00:30:04;1.40;;;1.40;;
36573;SDS011;22578;42.668;23.232;2023-03-13T00:33:25;1.33;;;1.33;;
36573;SDS011;22578;42.668;23.232;2023-03-13T00:36:45;1.35;;;1.35;;
36573;SDS011;22578;42.668;23.232;2023-03-13T00:40:06;1.30;;;1.30;;
36573;SDS011;22578;42.668;23.232;2023-03-13T00:43:28;1.45;;;1.45;;
36573;SDS011;22578;42.668;23.232;2023-03-13T00:46:48;2.72;;;2.53;;
36573;SDS011;22578;42.668;23.232;2023-03-13T00:50:08;1.30;;;1.30;;
36573;SDS011;22578;42.668;23.232;2023-03-13T00:53:29;1.85;;;1.75;;
36573;SDS011;22578;42.668;23.232;2023-03-13T00:56:50;1.30;;;1.30;;
36573;SDS011;22578;42.668;23.232;2023-03-13T01:00:10;1.38;;;1.38;;
36573;SDS011;22578;42.668;23.232;2023-03-13T01:03:31;1.30;;;1.30;;
36573;SDS011;22578;42.668;23.232;2023-03-13T01:06:51;1.30;;;1.30;;
36573;SDS011;22578;42.668;23.232;2023-03-13T01:10:12;1.30;;;1.30;;
36573;SDS011;22578;42.668;23.232;2023-03-13T01:13:32;1.30;;;1.30;;
36573;SDS011;22578;42.668;23.232;2023-03-13T01:16:53;1.30;;;1.30;;
36573;SDS011;22578;42.668;23.232;2023-03-13T01:20:13;1.30;;;1.30;;
36573;SDS011;22578;42.668;23.232;2023-03-13T01:23:34;1.30;;;1.30;;
36573;SDS011;22578;42.668;23.232;2023-03-13T01:26:54;1.42;;;1.42;;
36573;SDS011;22578;42.668;23.232;2023-03-13T01:30:15;1.30;;;1.30;;
36573;SDS011;22578;42.668;23.232;2023-03-13T01:33:35;1.30;;;1.30;;
36573;SDS011;22578;42.668;23.232;2023-03-13T01:36:56;1.30;;;1.30;;
36573;SDS011;22578;42.668;23.232;2023-03-13T01:40:16;1.30;;;1.30;;
36573;SDS011;22578;42.668;23.232;2023-03-13T01:43:37;1.20;;;1.20;;
36573;SDS011;22578;42.668;23.232;2023-03-13T01:46:57;1.40;;;1.40;;
36573;SDS011;22578;42.668;23.232;2023-03-13T01:50:17;1.65;;;1.60;;
36573;SDS011;22578;42.668;23.232;2023-03-13T01:53:39;1.70;;;1.67;;
36573;SDS011;22578;42.668;23.232;2023-03-13T01:57:09;1.30;;;1.30;;
36573;SDS011;22578;42.668;23.232;2023-03-13T02:00:34;1.58;;;1.52;;
36573;SDS011;22578;42.668;23.232;2023-03-13T02:03:55;1.50;;;1.50;;
36573;SDS011;22578;42.668;23.232;2023-03-13T02:07:17;1.40;;;1.40;;
36573;SDS011;22578;42.668;23.232;2023-03-13T02:10:42;1.20;;;1.20;;
36573;SDS011;22578;42.668;23.232;2023-03-13T02:14:07;1.60;;;1.55;;
36573;SDS011;22578;42.668;23.232;2023-03-13T02:17:28;1.88;;;1.77;;
36573;SDS011;22578;42.668;23.232;2023-03-13T02:20:48;1.42;;;1.42;;
36573;SDS011;22578;42.668;23.232;2023-03-13T02:27:46;1.30;;;1.30;;
36573;SDS011;22578;42.668;23.232;2023-03-13T02:31:07;1.77;;;1.67;;
36573;SDS011;22578;42.668;23.232;2023-03-13T02:34:29;1.40;;;1.40;;
36573;SDS011;22578;42.668;23.232;2023-03-13T02:37:52;1.30;;;1.30;;
36573;SDS011;22578;42.668;23.232;2023-03-13T02:41:15;1.50;;;1.50;;
36573;SDS011;22578;42.668;23.232;2023-03-13T02:44:37;1.60;;;1.50;;
36573;SDS011;22578;42.668;23.232;2023-03-13T02:47:58;1.30;;;1.30;;
36573;SDS011;22578;42.668;23.232;2023-03-13T02:54:50;1.40;;;1.40;;
36573;SDS011;22578;42.668;23.232;2023-03-13T02:58:12;1.30;;;1.30;;
36573;SDS011;22578;42.668;23.232;2023-03-13T03:01:32;1.30;;;1.30;;
36573;SDS011;22578;42.668;23.232;2023-03-13T03:04:53;1.30;;;1.30;;
36573;SDS011;22578;42.668;23.232;2023-03-13T03:08:13;1.35;;;1.35;;
36573;SDS011;22578;42.668;23.232;2023-03-13T03:11:33;1.60;;;1.58;;
36573;SDS011;22578;42.668;23.232;2023-03-13T03:14:54;1.35;;;1.35;;
36573;SDS011;22578;42.668;23.232;2023-03-13T03:18:14;1.30;;;1.30;;
36573;SDS011;22578;42.668;23.232;2023-03-13T03:21:34;1.30;;;1.30;;
36573;SDS011;22578;42.668;23.232;2023-03-13T03:24:55;1.30;;;1.30;;
36573;SDS011;22578;42.668;23.232;2023-03-13T03:28:15;1.40;;;1.40;;
36573;SDS011;22578;42.668;23.232;2023-03-13T03:31:36;1.30;;;1.30;;
36573;SDS011;22578;42.668;23.232;2023-03-13T03:34:56;1.30;;;1.30;;
36573;SDS011;22578;42.668;23.232;2023-03-13T03:38:16;1.80;;;1.70;;
36573;SDS011;22578;42.668;23.232;2023-03-13T03:41:37;1.35;;;1.35;;
36573;SDS011;22578;42.668;23.232;2023-03-13T03:44:57;1.30;;;1.30;;
36573;SDS011;22578;42.668;23.232;2023-03-13T03:48:17;1.40;;;1.40;;
36573;SDS011;22578;42.668;23.232;2023-03-13T03:51:38;1.30;;;1.30;;
36573;SDS011;22578;42.668;23.232;2023-03-13T03:54:58;1.42;;;1.42;;
36573;SDS011;22578;42.668;23.232;2023-03-13T03:58:18;1.50;;;1.50;;
36573;SDS011;22578;42.668;23.232;2023-03-13T04:01:39;1.40;;;1.40;;
36573;SDS011;22578;42.668;23.232;2023-03-13T04:04:59;1.73;;;1.63;;
36573;SDS011;22578;42.668;23.232;2023-03-13T04:08:20;1.30;;;1.30;;
36573;SDS011;22578;42.668;23.232;2023-03-13T04:11:40;1.35;;;1.35;;
36573;SDS011;22578;42.668;23.232;2023-03-13T04:15:01;1.40;;;1.40;;
36573;SDS011;22578;42.668;23.232;2023-03-13T04:18:21;1.92;;;1.83;;
36573;SDS011;22578;42.668;23.232;2023-03-13T04:21:42;1.40;;;1.40;;
36573;SDS011;22578;42.668;23.232;2023-03-13T04:25:02;1.30;;;1.30;;
36573;SDS011;22578;42.668;23.232;2023-03-13T04:28:22;1.30;;;1.30;;
36573;SDS011;22578;42.668;23.232;2023-03-13T04:31:43;1.30;;;1.30;;
36573;SDS011;22578;42.668;23.232;2023-03-13T04:35:03;2.30;;;2.20;;
36573;SDS011;22578;42.668;23.232;2023-03-13T04:38:24;1.50;;;1.50;;
36573;SDS011;22578;42.668;23.232;2023-03-13T04:41:44;1.35;;;1.35;;
36573;SDS011;22578;42.668;23.232;2023-03-13T04:45:05;1.33;;;1.33;;
36573;SDS011;22578;42.668;23.232;2023-03-13T04:48:26;1.30;;;1.30;;
36573;SDS011;22578;42.668;23.232;2023-03-13T04:51:46;1.75;;;1.65;;
36573;SDS011;22578;42.668;23.232;2023-03-13T04:55:07;1.30;;;1.30;;
36573;SDS011;22578;42.668;23.232;2023-03-13T04:58:27;1.58;;;1.52;;
36573;SDS011;22578;42.668;23.232;2023-03-13T05:01:48;1.30;;;1.30;;
36573;SDS011;22578;42.668;23.232;2023-03-13T05:05:08;1.40;;;1.40;;
36573;SDS011;22578;42.668;23.232;2023-03-13T05:08:28;1.40;;;1.40;;
36573;SDS011;22578;42.668;23.232;2023-03-13T05:11:49;1.40;;;1.40;;
36573;SDS011;22578;42.668;23.232;2023-03-13T05:15:09;1.30;;;1.30;;
36573;SDS011;22578;42.668;23.232;2023-03-13T05:18:30;1.30;;;1.30;;
36573;SDS011;22578;42.668;23.232;2023-03-13T05:21:50;1.42;;;1.42;;
36573;SDS011;22578;42.668;23.232;2023-03-13T05:25:11;1.30;;;1.30;;
36573;SDS011;22578;42.668;23.232;2023-03-13T05:28:31;1.30;;;1.30;;
36573;SDS011;22578;42.668;23.232;2023-03-13T05:31:52;1.40;;;1.40;;
36573;SDS011;22578;42.668;23.232;2023-03-13T05:35:12;1.20;;;1.20;;
36573;SDS011;22578;42.668;23.232;2023-03-13T05:38:32;1.30;;;1.30;;
36573;SDS011;22578;42.668;23.232;2023-03-13T05:41:53;1.30;;;1.30;;
36573;SDS011;22578;42.668;23.232;2023-03-13T05:45:13;1.30;;;1.30;;
36573;SDS011;22578;42.668;23.232;2023-03-13T05:48:34;1.60;;;1.55;;
36573;SDS011;22578;42.668;23.232;2023-03-13T05:51:54;1.30;;;1.30;;
36573;SDS011;22578;42.668;23.232;2023-03-13T05:55:14;1.60;;;1.50;;
36573;SDS011;22578;42.668;23.232;2023-03-13T05:58:35;1.50;;;1.50;;
36573;SDS011;22578;42.668;23.232;2023-03-13T06:01:55;2.08;;;1.98;;
36573;SDS011;22578;42.668;23.232;2023-03-13T06:05:15;1.67;;;1.58;;
36573;SDS011;22578;42.668;23.232;2023-03-13T06:08:36;1.40;;;1.40;;
36573;SDS011;22578;42.668;23.232;2023-03-13T06:11:56;1.48;;;1.48;;
36573;SDS011;22578;42.668;23.232;2023-03-13T06:15:17;3.35;;;3.15;;
36573;SDS011;22578;42.668;23.232;2023-03-13T06:18:37;2.55;;;2.45;;
36573;SDS011;22578;42.668;23.232;2023-03-13T06:21:57;1.20;;;1.20;;
36573;SDS011;22578;42.668;23.232;2023-03-13T06:25:18;1.23;;;1.23;;
36573;SDS011;22578;42.668;23.232;2023-03-13T06:28:38;1.70;;;1.60;;
36573;SDS011;22578;42.668;23.232;2023-03-13T06:31:59;1.40;;;1.40;;
36573;SDS011;22578;42.668;23.232;2023-03-13T06:35:19;1.65;;;1.55;;
36573;SDS011;22578;42.668;23.232;2023-03-13T06:38:39;1.40;;;1.40;;
36573;SDS011;22578;42.668;23.232;2023-03-13T06:42:00;1.40;;;1.35;;
36573;SDS011;22578;42.668;23.232;2023-03-13T06:45:20;1.40;;;1.40;;
36573;SDS011;22578;42.668;23.232;2023-03-13T06:48:40;1.30;;;1.30;;
36573;SDS011;22578;42.668;23.232;2023-03-13T06:52:01;1.27;;;1.27;;
36573;SDS011;22578;42.668;23.232;2023-03-13T06:55:21;1.20;;;1.20;;
36573;SDS011;22578;42.668;23.232;2023-03-13T06:58:45;1.40;;;1.40;;
36573;SDS011;22578;42.668;23.232;2023-03-13T07:02:07;1.40;;;1.35;;
36573;SDS011;22578;42.668;23.232;2023-03-13T07:05:29;1.70;;;1.65;;
36573;SDS011;22578;42.668;23.232;2023-03-13T07:08:49;1.20;;;1.20;;
36573;SDS011;22578;42.668;23.232;2023-03-13T07:12:09;1.55;;;1.52;;
36573;SDS011;22578;42.668;23.232;2023-03-13T07:15:30;1.40;;;1.40;;
36573;SDS011;22578;42.668;23.232;2023-03-13T07:18:50;1.20;;;1.20;;
36573;SDS011;22578;42.668;23.232;2023-03-13T07:22:10;1.27;;;1.27;;
36573;SDS011;22578;42.668;23.232;2023-03-13T07:25:31;1.20;;;1.20;;
36573;SDS011;22578;42.668;23.232;2023-03-13T07:28:51;1.20;;;1.20;;
36573;SDS011;22578;42.668;23.232;2023-03-13T07:32:11;1.20;;;1.20;;
36573;SDS011;22578;42.668;23.232;2023-03-13T07:35:32;1.30;;;1.30;;
36573;SDS011;22578;42.668;23.232;2023-03-13T07:38:52;1.20;;;1.20;;
36573;SDS011;22578;42.668;23.232;2023-03-13T07:42:12;1.65;;;1.55;;
36573;SDS011;22578;42.668;23.232;2023-03-13T07:45:33;1.70;;;1.60;;
36573;SDS011;22578;42.668;23.232;2023-03-13T07:48:53;1.20;;;1.20;;
36573;SDS011;22578;42.668;23.232;2023-03-13T07:52:14;1.30;;;1.30;;
36573;SDS011;22578;42.668;23.232;2023-03-13T07:55:34;1.30;;;1.30;;
36573;SDS011;22578;42.668;23.232;2023-03-13T07:58:55;1.25;;;1.25;;
36573;SDS011;22578;42.668;23.232;2023-03-13T08:02:15;1.75;;;1.65;;
36573;SDS011;22578;42.668;23.232;2023-03-13T08:05:35;1.10;;;1.10;;
36573;SDS011;22578;42.668;23.232;2023-03-13T08:08:56;1.20;;;1.20;;
36573;SDS011;22578;42.668;23.232;2023-03-13T08:12:17;1.35;;;1.35;;
36573;SDS011;22578;42.668;23.232;2023-03-13T08:15:38;1.30;;;1.30;;
36573;SDS011;22578;42.668;23.232;2023-03-13T08:18:58;1.40;;;1.40;;
36573;SDS011;22578;42.668;23.232;2023-03-13T08:22:19;1.85;;;1.75;;
36573;SDS011;22578;42.668;23.232;2023-03-13T08:25:39;1.23;;;1.23;;
36573;SDS011;22578;42.668;23.232;2023-03-13T08:29:00;1.20;;;1.20;;
36573;SDS011;22578;42.668;23.232;2023-03-13T08:32:23;1.88;;;1.60;;
36573;SDS011;22578;42.668;23.232;2023-03-13T08:35:43;1.27;;;1.27;;
36573;SDS011;22578;42.668;23.232;2023-03-13T08:39:04;1.30;;;1.30;;
36573;SDS011;22578;42.668;23.232;2023-03-13T08:42:26;1.25;;;1.25;;
36573;SDS011;22578;42.668;23.232;2023-03-13T08:45:52;1.20;;;1.20;;
36573;SDS011;22578;42.668;23.232;2023-03-13T08:49:13;1.42;;;1.42;;
36573;SDS011;22578;42.668;23.232;2023-03-13T08:52:36;1.83;;;1.73;;
36573;SDS011;22578;42.668;23.232;2023-03-13T08:55:56;2.40;;;1.55;;
36573;SDS011;22578;42.668;23.232;2023-03-13T08:59:17;1.65;;;1.55;;
36573;SDS011;22578;42.668;23.232;2023-03-13T09:02:37;1.20;;;1.20;;
36573;SDS011;22578;42.668;23.232;2023-03-13T09:05:58;1.25;;;1.25;;
36573;SDS011;22578;42.668;23.232;2023-03-13T09:09:19;1.13;;;1.13;;
36573;SDS011;22578;42.668;23.232;2023-03-13T09:12:39;1.23;;;1.23;;
36573;SDS011;22578;42.668;23.232;2023-03-13T09:16:04;1.48;;;1.38;;
36573;SDS011;22578;42.668;23.232;2023-03-13T09:19:29;1.70;;;1.60;;
36573;SDS011;22578;42.668;23.232;2023-03-13T09:22:50;1.88;;;1.77;;
36573;SDS011;22578;42.668;23.232;2023-03-13T09:26:11;1.33;;;1.33;;
36573;SDS011;22578;42.668;23.232;2023-03-13T09:29:31;1.20;;;1.20;;
36573;SDS011;22578;42.668;23.232;2023-03-13T09:32:52;1.17;;;1.17;;
36573;SDS011;22578;42.668;23.232;2023-03-13T09:36:12;1.30;;;1.30;;
36573;SDS011;22578;42.668;23.232;2023-03-13T09:39:33;1.17;;;1.17;;
36573;SDS011;22578;42.668;23.232;2023-03-13T09:42:57;1.20;;;1.20;;
36573;SDS011;22578;42.668;23.232;2023-03-13T09:46:24;1.10;;;1.10;;
36573;SDS011;22578;42.668;23.232;2023-03-13T09:49:48;1.00;;;1.00;;
36573;SDS011;22578;42.668;23.232;2023-03-13T09:53:14;3.05;;;2.42;;
36573;SDS011;22578;42.668;23.232;2023-03-13T09:56:38;1.02;;;1.02;;
36573;SDS011;22578;42.668;23.232;2023-03-13T10:03:41;1.10;;;1.10;;
36573;SDS011;22578;42.668;23.232;2023-03-13T10:07:09;4.03;;;1.80;;
36573;SDS011;22578;42.668;23.232;2023-03-13T10:10:38;1.77;;;1.67;;
36573;SDS011;22578;42.668;23.232;2023-03-13T10:17:32;1.00;;;1.00;;
36573;SDS011;22578;42.668;23.232;2023-03-13T10:20:58;1.13;;;1.13;;
36573;SDS011;22578;42.668;23.232;2023-03-13T10:24:26;1.25;;;1.25;;
36573;SDS011;22578;42.668;23.232;2023-03-13T10:27:51;1.08;;;1.08;;
36573;SDS011;22578;42.668;23.232;2023-03-13T10:31:13;1.35;;;1.30;;
36573;SDS011;22578;42.668;23.232;2023-03-13T10:34:54;1.55;;;1.45;;
36573;SDS011;22578;42.668;23.232;2023-03-13T10:38:18;1.52;;;1.42;;
36573;SDS011;22578;42.668;23.232;2023-03-13T10:41:40;1.83;;;1.73;;
36573;SDS011;22578;42.668;23.232;2023-03-13T10:45:02;1.67;;;1.58;;
36573;SDS011;22578;42.668;23.232;2023-03-13T10:48:25;1.13;;;1.13;;
36573;SDS011;22578;42.668;23.232;2023-03-13T10:51:50;1.33;;;1.30;;
36573;SDS011;22578;42.668;23.232;2023-03-13T10:55:22;1.95;;;1.85;;
36573;SDS011;22578;42.668;23.232;2023-03-13T10:58:47;1.75;;;1.65;;
36573;SDS011;22578;42.668;23.232;2023-03-13T11:05:53;1.10;;;1.10;;
36573;SDS011;22578;42.668;23.232;2023-03-13T11:09:16;1.75;;;1.65;;
36573;SDS011;22578;42.668;23.232;2023-03-13T11:12:36;1.73;;;1.60;;
36573;SDS011;22578;42.668;23.232;2023-03-13T11:16:15;1.90;;;1.70;;
36573;SDS011;22578;42.668;23.232;2023-03-13T11:19:40;1.45;;;1.42;;
36573;SDS011;22578;42.668;23.232;2023-03-13T11:26:37;1.40;;;1.35;;
36573;SDS011;22578;42.668;23.232;2023-03-13T11:30:39;1.42;;;1.40;;
36573;SDS011;22578;42.668;23.232;2023-03-13T11:34:14;1.65;;;1.55;;
36573;SDS011;22578;42.668;23.232;2023-03-13T11:37:44;1.73;;;1.63;;
36573;SDS011;22578;42.668;23.232;2023-03-13T11:51:11;2.30;;;2.13;;
36573;SDS011;22578;42.668;23.232;2023-03-13T12:02:44;1.30;;;1.23;;
36573;SDS011;22578;42.668;23.232;2023-03-13T12:06:24;1.75;;;1.63;;
36573;SDS011;22578;42.668;23.232;2023-03-13T12:13:28;1.98;;;1.88;;
36573;SDS011;22578;42.668;23.232;2023-03-13T12:16:52;1.80;;;1.70;;
36573;SDS011;22578;42.668;23.232;2023-03-13T12:24:24;1.83;;;1.73;;
36573;SDS011;22578;42.668;23.232;2023-03-13T12:27:48;1.88;;;1.77;;
36573;SDS011;22578;42.668;23.232;2023-03-13T12:38:43;1.55;;;1.45;;
36573;SDS011;22578;42.668;23.232;2023-03-13T12:53:09;5.15;;;2.13;;
36573;SDS011;22578;42.668;23.232;2023-03-13T13:00:35;1.80;;;1.70;;
36573;SDS011;22578;42.668;23.232;2023-03-13T13:03:59;1.15;;;1.15;;
36573;SDS011;22578;42.668;23.232;2023-03-13T13:07:33;1.90;;;1.80;;
36573;SDS011;22578;42.668;23.232;2023-03-13T13:10:54;1.20;;;1.20;;
36573;SDS011;22578;42.668;23.232;2023-03-13T13:14:57;2.90;;;2.70;;
36573;SDS011;22578;42.668;23.232;2023-03-13T13:25:46;1.50;;;1.40;;
36573;SDS011;22578;42.668;23.232;2023-03-13T13:32:32;3.50;;;2.58;;
36573;SDS011;22578;42.668;23.232;2023-03-13T13:39:43;4.75;;;3.05;;
36573;SDS011;22578;42.668;23.232;2023-03-13T13:43:17;2.40;;;2.20;;
36573;SDS011;22578;42.668;23.232;2023-03-13T13:46:44;2.50;;;2.30;;
36573;SDS011;22578;42.668;23.232;2023-03-13T13:50:15;1.98;;;1.83;;
36573;SDS011;22578;42.668;23.232;2023-03-13T13:53:46;3.08;;;2.65;;
36573;SDS011;22578;42.668;23.232;2023-03-13T14:00:52;3.17;;;2.83;;
36573;SDS011;22578;42.668;23.232;2023-03-13T14:04:23;2.25;;;1.92;;
36573;SDS011;22578;42.668;23.232;2023-03-13T14:07:52;3.85;;;2.40;;
36573;SDS011;22578;42.668;23.232;2023-03-13T14:14:40;1.60;;;1.50;;
36573;SDS011;22578;42.668;23.232;2023-03-13T14:18:10;1.33;;;1.33;;
36573;SDS011;22578;42.668;23.232;2023-03-13T14:21:33;1.70;;;1.60;;
36573;SDS011;22578;42.668;23.232;2023-03-13T14:24:56;1.85;;;1.75;;
36573;SDS011;22578;42.668;23.232;2023-03-13T14:28:27;1.65;;;1.55;;
36573;SDS011;22578;42.668;23.232;2023-03-13T14:31:55;1.73;;;1.42;;
36573;SDS011;22578;42.668;23.232;2023-03-13T14:35:17;1.55;;;1.45;;
36573;SDS011;22578;42.668;23.232;2023-03-13T14:38:39;1.55;;;1.45;;
36573;SDS011;22578;42.668;23.232;2023-03-13T14:42:11;2.35;;;2.15;;
36573;SDS011;22578;42.668;23.232;2023-03-13T14:45:34;2.60;;;2.40;;
36573;SDS011;22578;42.668;23.232;2023-03-13T14:49:14;1.77;;;1.67;;
36573;SDS011;22578;42.668;23.232;2023-03-13T14:52:40;1.55;;;1.35;;
36573;SDS011;22578;42.668;23.232;2023-03-13T14:56:12;2.05;;;1.95;;
36573;SDS011;22578;42.668;23.232;2023-03-13T14:59:34;2.00;;;1.90;;
36573;SDS011;22578;42.668;23.232;2023-03-13T15:06:39;2.28;;;2.08;;
36573;SDS011;22578;42.668;23.232;2023-03-13T15:09:59;2.42;;;2.15;;
36573;SDS011;22578;42.668;23.232;2023-03-13T15:16:51;2.92;;;2.72;;
36573;SDS011;22578;42.668;23.232;2023-03-13T15:20:12;2.35;;;1.77;;
36573;SDS011;22578;42.668;23.232;2023-03-13T15:23:33;3.17;;;2.92;;
36573;SDS011;22578;42.668;23.232;2023-03-13T15:26:53;2.00;;;1.90;;
36573;SDS011;22578;42.668;23.232;2023-03-13T15:30:20;2.63;;;2.42;;
36573;SDS011;22578;42.668;23.232;2023-03-13T15:33:44;2.13;;;1.75;;
36573;SDS011;22578;42.668;23.232;2023-03-13T15:37:04;1.65;;;1.55;;
36573;SDS011;22578;42.668;23.232;2023-03-13T15:40:25;1.73;;;1.63;;
36573;SDS011;22578;42.668;23.232;2023-03-13T15:43:46;1.60;;;1.50;;
36573;SDS011;22578;42.668;23.232;2023-03-13T15:47:13;1.45;;;1.35;;
36573;SDS011;22578;42.668;23.232;2023-03-13T15:50:37;1.83;;;1.73;;
36573;SDS011;22578;42.668;23.232;2023-03-13T15:53:57;1.38;;;1.27;;
36573;SDS011;22578;42.668;23.232;2023-03-13T15:57:19;1.77;;;1.65;;
36573;SDS011;22578;42.668;23.232;2023-03-13T16:00:42;1.77;;;1.67;;
36573;SDS011;22578;42.668;23.232;2023-03-13T16:04:03;1.65;;;1.55;;
36573;SDS011;22578;42.668;23.232;2023-03-13T16:07:24;1.27;;;1.25;;
36573;SDS011;22578;42.668;23.232;2023-03-13T16:10:44;1.52;;;1.48;;
36573;SDS011;22578;42.668;23.232;2023-03-13T16:14:05;2.17;;;2.05;;
36573;SDS011;22578;42.668;23.232;2023-03-13T16:17:26;1.95;;;1.85;;
36573;SDS011;22578;42.668;23.232;2023-03-13T16:20:48;1.80;;;1.70;;
36573;SDS011;22578;42.668;23.232;2023-03-13T16:24:09;2.15;;;1.73;;
36573;SDS011;22578;42.668;23.232;2023-03-13T16:27:29;1.20;;;1.20;;
36573;SDS011;22578;42.668;23.232;2023-03-13T16:30:50;5.85;;;2.38;;
36573;SDS011;22578;42.668;23.232;2023-03-13T16:34:10;1.83;;;1.73;;
36573;SDS011;22578;42.668;23.232;2023-03-13T16:37:31;2.30;;;2.15;;
36573;SDS011;22578;42.668;23.232;2023-03-13T16:40:51;2.70;;;2.08;;
36573;SDS011;22578;42.668;23.232;2023-03-13T16:44:11;2.20;;;2.08;;
36573;SDS011;22578;42.668;23.232;2023-03-13T16:47:32;1.65;;;1.60;;
36573;SDS011;22578;42.668;23.232;2023-03-13T16:50:54;1.45;;;1.40;;
36573;SDS011;22578;42.668;23.232;2023-03-13T16:54:14;1.52;;;1.45;;
36573;SDS011;22578;42.668;23.232;2023-03-13T16:57:35;2.90;;;1.85;;
36573;SDS011;22578;42.668;23.232;2023-03-13T17:00:55;1.73;;;1.63;;
36573;SDS011;22578;42.668;23.232;2023-03-13T17:04:16;1.52;;;1.48;;
36573;SDS011;22578;42.668;23.232;2023-03-13T17:07:36;3.08;;;2.75;;
36573;SDS011;22578;42.668;23.232;2023-03-13T17:10:57;1.88;;;1.77;;
36573;SDS011;22578;42.668;23.232;2023-03-13T17:14:18;2.05;;;1.95;;
36573;SDS011;22578;42.668;23.232;2023-03-13T17:17:38;1.45;;;1.40;;
36573;SDS011;22578;42.668;23.232;2023-03-13T17:20:58;1.67;;;1.58;;
36573;SDS011;22578;42.668;23.232;2023-03-13T17:24:19;1.88;;;1.77;;
36573;SDS011;22578;42.668;23.232;2023-03-13T17:27:40;2.38;;;2.28;;
36573;SDS011;22578;42.668;23.232;2023-03-13T17:31:00;1.30;;;1.30;;
36573;SDS011;22578;42.668;23.232;2023-03-13T17:34:21;2.13;;;2.03;;
36573;SDS011;22578;42.668;23.232;2023-03-13T17:37:42;1.52;;;1.50;;
36573;SDS011;22578;42.668;23.232;2023-03-13T17:41:03;1.40;;;1.40;;
36573;SDS011;22578;42.668;23.232;2023-03-13T17:44:24;2.40;;;2.20;;
36573;SDS011;22578;42.668;23.232;2023-03-13T17:47:44;1.63;;;1.52;;
36573;SDS011;22578;42.668;23.232;2023-03-13T17:51:07;1.50;;;1.50;;
36573;SDS011;22578;42.668;23.232;2023-03-13T17:54:32;2.03;;;1.92;;
36573;SDS011;22578;42.668;23.232;2023-03-13T17:57:52;1.92;;;1.83;;
36573;SDS011;22578;42.668;23.232;2023-03-13T18:01:13;1.70;;;1.60;;
36573;SDS011;22578;42.668;23.232;2023-03-13T18:04:33;1.23;;;1.23;;
36573;SDS011;22578;42.668;23.232;2023-03-13T18:07:54;1.48;;;1.42;;
36573;SDS011;22578;42.668;23.232;2023-03-13T18:11:15;1.38;;;1.38;;
36573;SDS011;22578;42.668;23.232;2023-03-13T18:14:36;1.52;;;1.50;;
36573;SDS011;22578;42.668;23.232;2023-03-13T18:17:56;3.50;;;1.83;;
36573;SDS011;22578;42.668;23.232;2023-03-13T18:21:17;1.33;;;1.33;;
36573;SDS011;22578;42.668;23.232;2023-03-13T18:24:38;1.73;;;1.63;;
36573;SDS011;22578;42.668;23.232;2023-03-13T18:28:01;1.67;;;1.58;;
36573;SDS011;22578;42.668;23.232;2023-03-13T18:31:21;2.13;;;2.03;;
36573;SDS011;22578;42.668;23.232;2023-03-13T18:34:42;1.65;;;1.55;;
36573;SDS011;22578;42.668;23.232;2023-03-13T18:38:03;1.92;;;1.83;;
36573;SDS011;22578;42.668;23.232;2023-03-13T18:41:23;2.40;;;2.30;;
36573;SDS011;22578;42.668;23.232;2023-03-13T18:44:44;3.45;;;3.03;;
36573;SDS011;22578;42.668;23.232;2023-03-13T18:48:07;2.50;;;2.33;;
36573;SDS011;22578;42.668;23.232;2023-03-13T18:51:29;1.40;;;1.40;;
36573;SDS011;22578;42.668;23.232;2023-03-13T18:54:49;6.75;;;6.07;;
36573;SDS011;22578;42.668;23.232;2023-03-13T18:58:10;9.48;;;5.95;;
36573;SDS011;22578;42.668;23.232;2023-03-13T19:01:30;7.15;;;6.53;;
36573;SDS011;22578;42.668;23.232;2023-03-13T19:04:51;13.95;;;12.40;;
36573;SDS011;22578;42.668;23.232;2023-03-13T19:08:11;8.75;;;6.28;;
36573;SDS011;22578;42.668;23.232;2023-03-13T19:11:32;17.38;;;14.52;;
36573;SDS011;22578;42.668;23.232;2023-03-13T19:14:52;14.45;;;11.32;;
36573;SDS011;22578;42.668;23.232;2023-03-13T19:18:13;8.00;;;6.28;;
36573;SDS011;22578;42.668;23.232;2023-03-13T19:21:33;8.95;;;6.88;;
36573;SDS011;22578;42.668;23.232;2023-03-13T19:24:53;12.93;;;11.65;;
36573;SDS011;22578;42.668;23.232;2023-03-13T19:28:20;11.18;;;10.00;;
36573;SDS011;22578;42.668;23.232;2023-03-13T19:31:41;14.18;;;10.55;;
36573;SDS011;22578;42.668;23.232;2023-03-13T19:35:01;7.10;;;6.30;;
36573;SDS011;22578;42.668;23.232;2023-03-13T19:38:22;6.00;;;5.43;;
36573;SDS011;22578;42.668;23.232;2023-03-13T19:41:42;6.72;;;5.53;;
36573;SDS011;22578;42.668;23.232;2023-03-13T19:45:03;12.25;;;8.55;;
36573;SDS011;22578;42.668;23.232;2023-03-13T19:48:24;12.98;;;11.65;;
36573;SDS011;22578;42.668;23.232;2023-03-13T19:51:45;11.10;;;8.98;;
36573;SDS011;22578;42.668;23.232;2023-03-13T19:55:06;14.48;;;9.52;;
36573;SDS011;22578;42.668;23.232;2023-03-13T19:58:27;15.68;;;11.65;;
36573;SDS011;22578;42.668;23.232;2023-03-13T20:01:47;13.07;;;11.10;;
36573;SDS011;22578;42.668;23.232;2023-03-13T20:05:08;9.38;;;6.78;;
36573;SDS011;22578;42.668;23.232;2023-03-13T20:08:28;6.47;;;5.88;;
36573;SDS011;22578;42.668;23.232;2023-03-13T20:11:49;8.57;;;7.78;;
36573;SDS011;22578;42.668;23.232;2023-03-13T20:15:10;11.15;;;9.10;;
36573;SDS011;22578;42.668;23.232;2023-03-13T20:18:31;14.10;;;10.00;;
36573;SDS011;22578;42.668;23.232;2023-03-13T20:21:51;14.00;;;10.35;;
36573;SDS011;22578;42.668;23.232;2023-03-13T20:25:11;12.25;;;9.15;;
36573;SDS011;22578;42.668;23.232;2023-03-13T20:28:32;22.55;;;13.95;;
36573;SDS011;22578;42.668;23.232;2023-03-13T20:31:54;13.20;;;11.90;;
36573;SDS011;22578;42.668;23.232;2023-03-13T20:35:18;21.50;;;17.55;;
36573;SDS011;22578;42.668;23.232;2023-03-13T20:38:39;13.05;;;9.70;;
36573;SDS011;22578;42.668;23.232;2023-03-13T20:42:00;15.50;;;6.63;;
36573;SDS011;22578;42.668;23.232;2023-03-13T20:45:21;6.07;;;4.40;;
36573;SDS011;22578;42.668;23.232;2023-03-13T20:48:41;3.78;;;3.38;;
36573;SDS011;22578;42.668;23.232;2023-03-13T20:52:02;3.72;;;3.35;;
36573;SDS011;22578;42.668;23.232;2023-03-13T20:55:23;3.85;;;2.95;;
36573;SDS011;22578;42.668;23.232;2023-03-13T20:58:44;3.72;;;3.30;;
36573;SDS011;22578;42.668;23.232;2023-03-13T21:02:04;5.53;;;3.30;;
36573;SDS011;22578;42.668;23.232;2023-03-13T21:05:25;3.33;;;2.47;;
36573;SDS011;22578;42.668;23.232;2023-03-13T21:08:45;3.28;;;2.42;;
36573;SDS011;22578;42.668;23.232;2023-03-13T21:12:06;3.63;;;3.33;;
36573;SDS011;22578;42.668;23.232;2023-03-13T21:15:27;5.60;;;3.83;;
36573;SDS011;22578;42.668;23.232;2023-03-13T21:18:47;2.63;;;2.42;;
36573;SDS011;22578;42.668;23.232;2023-03-13T21:22:07;3.63;;;3.33;;
36573;SDS011;22578;42.668;23.232;2023-03-13T21:25:28;3.25;;;2.95;;
36573;SDS011;22578;42.668;23.232;2023-03-13T21:28:48;3.38;;;3.08;;
36573;SDS011;22578;42.668;23.232;2023-03-13T21:32:10;1.98;;;1.85;;
36573;SDS011;22578;42.668;23.232;2023-03-13T21:35:30;1.83;;;1.73;;
36573;SDS011;22578;42.668;23.232;2023-03-13T21:38:50;2.67;;;2.28;;